Time,TemperatureF,DewpointF,PressureIn,WindDirection,WindDirectionDegrees,WindSpeedMPH,WindSpeedGustMPH,Humidity,HourlyPrecipIn,Conditions,Clouds,dailyrainin,SoftwareType,DateUTC
2013-03-16 00:02:00,55.0,43.0,30.19,East,79,5.0,7.0,63,0.48,,,-99.99,,2013-03-16 04:02:00,
2013-03-16 00:13:00,55.0,43.0,30.19,East,79,5.0,7.0,63,0.48,,,-99.99,,2013-03-16 04:13:00,
2013-03-16 00:23:00,55.0,42.0,30.19,East,79,4.0,5.0,62,0.48,,,-99.99,,2013-03-16 04:23:00,
2013-03-16 00:33:00,55.0,42.0,30.19,East,79,6.0,7.0,62,0.48,,,-99.99,,2013-03-16 04:33:00,
2013-03-16 00:43:00,55.0,42.0,30.19,East,79,6.0,7.0,62,0.48,,,-99.99,,2013-03-16 04:43:00,
2013-03-16 00:53:00,55.0,42.0,30.19,East,100,7.0,8.0,62,0.48,,,-99.99,,2013-03-16 04:53:00,
2013-03-16 01:02:00,56.0,42.0,30.19,East,86,4.0,5.0,60,0.48,,,-99.99,,2013-03-16 05:02:00,
2013-03-16 01:12:00,56.0,42.0,30.19,East,86,4.0,5.0,60,0.48,,,-99.99,,2013-03-16 05:12:00,
2013-03-16 01:22:00,55.0,41.0,30.19,ESE,117,5.0,5.0,60,0.48,,,-99.99,,2013-03-16 05:22:00,
2013-03-16 01:32:00,56.0,41.0,30.18,ESE,111,4.0,5.0,56,0.48,,,-99.99,,2013-03-16 05:32:00,
2013-03-16 01:42:00,56.0,41.0,30.18,ESE,111,4.0,5.0,56,0.48,,,-99.99,,2013-03-16 05:42:00,
2013-03-16 01:53:00,56.0,40.0,30.17,SE,138,3.0,4.0,55,0.48,,,-99.99,,2013-03-16 05:53:00,
2013-03-16 02:02:00,56.0,40.0,30.17,SE,129,0.0,3.0,54,0.48,,,-99.99,,2013-03-16 06:02:00,
2013-03-16 02:12:00,56.0,40.0,30.17,SE,129,0.0,3.0,54,0.48,,,-99.99,,2013-03-16 06:12:00,
2013-03-16 02:22:00,56.0,42.0,30.16,SE,135,4.0,5.0,60,0.48,,,-99.99,,2013-03-16 06:22:00,
2013-03-16 02:32:00,56.0,41.0,30.16,SE,134,4.0,4.0,57,0.48,,,-99.99,,2013-03-16 06:32:00,
2013-03-16 02:42:00,56.0,41.0,30.16,SE,134,4.0,4.0,57,0.48,,,-99.99,,2013-03-16 06:42:00,
2013-03-16 02:52:00,56.0,40.0,30.16,SSE,159,3.0,4.0,55,0.48,,,-99.99,,2013-03-16 06:52:00,
2013-03-16 03:02:00,55.0,39.0,30.16,SSE,150,4.0,5.0,55,0.48,,,-99.99,,2013-03-16 07:02:00,
2013-03-16 03:12:00,55.0,39.0,30.16,SSE,150,4.0,5.0,55,0.48,,,-99.99,,2013-03-16 07:12:00,
2013-03-16 03:22:00,56.0,38.0,30.16,SE,139,3.0,4.0,51,0.48,,,-99.99,,2013-03-16 07:22:00,
2013-03-16 03:32:00,57.0,39.0,30.15,ENE,70,3.0,4.0,50,0.48,,,-99.99,,2013-03-16 07:32:00,
2013-03-16 03:42:00,57.0,39.0,30.15,ENE,70,3.0,4.0,50,0.48,,,-99.99,,2013-03-16 07:42:00,
2013-03-16 03:52:00,56.0,38.0,30.15,North,0,0.0,0.0,51,0.48,,,-99.99,,2013-03-16 07:52:00,
2013-03-16 04:02:00,56.0,37.0,30.15,North,0,0.0,0.0,49,0.48,,,-99.99,,2013-03-16 08:02:00,
2013-03-16 04:12:00,56.0,37.0,30.15,North,0,0.0,0.0,49,0.48,,,-99.99,,2013-03-16 08:12:00,
2013-03-16 04:23:00,56.0,39.0,30.15,North,0,0.0,0.0,53,0.48,,,-99.99,,2013-03-16 08:23:00,
2013-03-16 04:32:00,54.0,41.0,30.15,North,0,0.0,0.0,61,0.48,,,-99.99,,2013-03-16 08:32:00,
2013-03-16 04:42:00,54.0,41.0,30.15,North,0,0.0,0.0,61,0.48,,,-99.99,,2013-03-16 08:42:00,
2013-03-16 04:52:00,54.0,43.0,30.15,North,0,0.0,0.0,66,0.48,,,-99.99,,2013-03-16 08:52:00,
2013-03-16 05:02:00,52.0,43.0,30.15,North,0,0.0,0.0,71,0.48,,,-99.99,,2013-03-16 09:02:00,
2013-03-16 05:12:00,52.0,43.0,30.15,North,0,0.0,0.0,71,0.48,,,-99.99,,2013-03-16 09:12:00,
2013-03-16 05:22:00,51.0,43.0,30.15,North,0,0.0,0.0,74,0.48,,,-99.99,,2013-03-16 09:22:00,
2013-03-16 05:33:00,52.0,47.0,30.14,West,276,3.0,4.0,82,0.48,,,-99.99,,2013-03-16 09:33:00,
2013-03-16 05:42:00,52.0,47.0,30.14,West,276,3.0,4.0,82,0.48,,,-99.99,,2013-03-16 09:42:00,
2013-03-16 05:53:00,52.0,46.0,30.14,NNW,330,4.0,4.0,79,0.48,,,-99.99,,2013-03-16 09:53:00,
2013-03-16 06:03:00,52.0,46.0,30.14,NNW,329,6.0,6.0,81,0.48,,,-99.99,,2013-03-16 10:03:00,
2013-03-16 06:12:00,52.0,46.0,30.14,NNW,329,6.0,6.0,81,0.48,,,-99.99,,2013-03-16 10:12:00,
2013-03-16 06:23:00,52.0,45.0,30.15,NNW,332,6.0,6.0,78,0.48,,,-99.99,,2013-03-16 10:23:00,
2013-03-16 06:32:00,52.0,45.0,30.15,NW,319,1.0,3.0,78,0.48,,,-99.99,,2013-03-16 10:32:00,
2013-03-16 06:42:00,52.0,45.0,30.15,NW,319,1.0,3.0,78,0.48,,,-99.99,,2013-03-16 10:42:00,
2013-03-16 06:53:00,52.0,45.0,30.15,North,0,0.0,0.0,78,0.48,,,-99.99,,2013-03-16 10:53:00,
2013-03-16 07:03:00,51.0,44.0,30.15,North,0,0.0,0.0,78,0.48,,,-99.99,,2013-03-16 11:03:00,
2013-03-16 07:12:00,51.0,44.0,30.15,North,0,0.0,0.0,78,0.48,,,-99.99,,2013-03-16 11:12:00,
2013-03-16 07:22:00,48.0,43.0,30.16,SSW,201,4.0,5.0,83,0.48,,,-99.99,,2013-03-16 11:22:00,
2013-03-16 07:32:00,47.0,43.0,30.16,South,191,4.0,5.0,86,0.48,,,-99.99,,2013-03-16 11:32:00,
2013-03-16 07:43:00,47.0,43.0,30.16,South,191,4.0,5.0,86,0.48,,,-99.99,,2013-03-16 11:43:00,
2013-03-16 07:53:00,47.0,43.0,30.16,South,184,5.0,6.0,87,0.48,,,-99.99,,2013-03-16 11:53:00,
2013-03-16 08:02:00,48.0,43.0,30.16,SSW,194,1.0,3.0,83,0.48,,,-99.99,,2013-03-16 12:02:00,
2013-03-16 08:12:00,48.0,43.0,30.16,SSW,194,1.0,3.0,83,0.48,,,-99.99,,2013-03-16 12:12:00,
2013-03-16 08:22:00,48.0,44.0,30.18,SSW,207,4.0,4.0,85,0.48,,,-99.99,,2013-03-16 12:22:00,
2013-03-16 08:32:00,48.0,43.0,30.18,SSW,205,3.0,4.0,83,0.48,,,-99.99,,2013-03-16 12:32:00,
2013-03-16 08:42:00,48.0,43.0,30.18,SSW,205,3.0,4.0,83,0.48,,,-99.99,,2013-03-16 12:42:00,
2013-03-16 08:53:00,51.0,45.0,30.18,SSW,198,2.0,4.0,80,0.48,,,-99.99,,2013-03-16 12:53:00,
2013-03-16 09:02:00,53.0,46.0,30.19,North,0,0.0,0.0,78,0.48,,,-99.99,,2013-03-16 13:02:00,
2013-03-16 09:12:00,53.0,46.0,30.19,North,0,0.0,0.0,78,0.48,,,-99.99,,2013-03-16 13:12:00,
2013-03-16 09:22:00,55.0,47.0,30.18,North,0,0.0,0.0,75,0.48,,,-99.99,,2013-03-16 13:22:00,
2013-03-16 09:32:00,53.0,46.0,30.19,North,0,0.0,0.0,78,0.48,,,-99.99,,2013-03-16 13:32:00,
2013-03-16 09:42:00,53.0,46.0,30.19,North,0,0.0,0.0,78,0.48,,,-99.99,,2013-03-16 13:42:00,
2013-03-16 09:53:00,59.0,44.0,30.19,North,0,0.0,0.0,58,0.48,,,-99.99,,2013-03-16 13:53:00,
2013-03-16 10:02:00,61.0,43.0,30.19,North,0,0.0,0.0,51,0.48,,,-99.99,,2013-03-16 14:02:00,
2013-03-16 10:12:00,61.0,43.0,30.19,North,0,0.0,0.0,51,0.48,,,-99.99,,2013-03-16 14:12:00,
2013-03-16 10:22:00,64.0,42.0,30.19,South,190,2.0,7.0,45,0.48,,,-99.99,,2013-03-16 14:22:00,
2013-03-16 10:32:00,64.0,43.0,30.19,SW,217,4.0,7.0,47,0.48,,,-99.99,,2013-03-16 14:32:00,
2013-03-16 10:42:00,64.0,43.0,30.19,SW,217,4.0,7.0,47,0.48,,,-99.99,,2013-03-16 14:42:00,
2013-03-16 10:52:00,66.0,48.0,30.19,South,179,6.0,8.0,52,0.48,,,-99.99,,2013-03-16 14:52:00,
2013-03-16 11:03:00,66.0,48.0,30.19,SSW,207,8.0,12.0,53,0.48,,,-99.99,,2013-03-16 15:03:00,
2013-03-16 11:12:00,66.0,48.0,30.19,SSW,207,8.0,12.0,53,0.48,,,-99.99,,2013-03-16 15:12:00,
2013-03-16 11:23:00,68.0,50.0,30.18,South,183,8.0,11.0,52,0.48,,,-99.99,,2013-03-16 15:23:00,
2013-03-16 11:33:00,68.0,48.0,30.18,SSW,203,7.0,11.0,48,0.48,,,-99.99,,2013-03-16 15:33:00,
2013-03-16 11:43:00,68.0,48.0,30.18,SSW,203,7.0,11.0,48,0.48,,,-99.99,,2013-03-16 15:43:00,
2013-03-16 11:53:00,68.0,48.0,30.18,SSW,193,9.0,13.0,48,0.48,,,-99.99,,2013-03-16 15:53:00,
2013-03-16 12:03:00,70.0,48.0,30.17,SSE,158,7.0,11.0,46,0.48,,,-99.99,,2013-03-16 16:03:00,
2013-03-16 12:12:00,70.0,48.0,30.17,SSE,158,7.0,11.0,46,0.48,,,-99.99,,2013-03-16 16:12:00,
2013-03-16 12:23:00,70.0,46.0,30.17,West,262,6.0,8.0,43,0.48,,,-99.99,,2013-03-16 16:23:00,
2013-03-16 12:33:00,72.0,46.0,30.16,SW,231,9.0,13.0,39,0.48,,,-99.99,,2013-03-16 16:33:00,
2013-03-16 12:42:00,72.0,46.0,30.16,SW,231,9.0,13.0,39,0.48,,,-99.99,,2013-03-16 16:42:00,
2013-03-16 12:53:00,72.0,46.0,30.16,WSW,257,6.0,9.0,39,0.48,,,-99.99,,2013-03-16 16:53:00,
2013-03-16 13:03:00,73.0,44.0,30.15,WSW,249,6.0,12.0,35,0.48,,,-99.99,,2013-03-16 17:03:00,
2013-03-16 13:13:00,73.0,44.0,30.15,WSW,249,6.0,12.0,35,0.48,,,-99.99,,2013-03-16 17:13:00,
2013-03-16 13:23:00,73.0,46.0,30.15,WSW,257,7.0,11.0,38,0.48,,,-99.99,,2013-03-16 17:23:00,
2013-03-16 13:32:00,74.0,45.0,30.14,WSW,245,8.0,12.0,35,0.48,,,-99.99,,2013-03-16 17:32:00,
2013-03-16 13:42:00,74.0,45.0,30.14,WSW,245,8.0,12.0,35,0.48,,,-99.99,,2013-03-16 17:42:00,
2013-03-16 13:53:00,74.0,44.0,30.13,SSW,198,4.0,8.0,34,0.48,,,-99.99,,2013-03-16 17:53:00,
2013-03-16 14:02:00,74.0,44.0,30.12,WSW,243,6.0,11.0,34,0.48,,,-99.99,,2013-03-16 18:02:00,
2013-03-16 14:13:00,74.0,44.0,30.12,WSW,243,6.0,11.0,34,0.48,,,-99.99,,2013-03-16 18:13:00,
2013-03-16 14:23:00,75.0,43.0,30.11,WSW,240,8.0,13.0,32,0.48,,,-99.99,,2013-03-16 18:23:00,
2013-03-16 14:33:00,76.0,44.0,30.11,WSW,246,6.0,12.0,32,0.48,,,-99.99,,2013-03-16 18:33:00,
2013-03-16 14:43:00,76.0,44.0,30.11,WSW,246,6.0,12.0,32,0.48,,,-99.99,,2013-03-16 18:43:00,
2013-03-16 14:53:00,76.0,42.0,30.11,WSW,239,4.0,7.0,30,0.48,,,-99.99,,2013-03-16 18:53:00,
2013-03-16 15:02:00,76.0,43.0,30.09,WSW,255,7.0,11.0,31,0.48,,,-99.99,,2013-03-16 19:02:00,
2013-03-16 15:12:00,76.0,43.0,30.09,WSW,255,7.0,11.0,31,0.48,,,-99.99,,2013-03-16 19:12:00,
2013-03-16 15:22:00,76.0,43.0,30.09,WNW,291,6.0,12.0,31,0.48,,,-99.99,,2013-03-16 19:22:00,
2013-03-16 15:32:00,77.0,44.0,30.08,WSW,239,7.0,11.0,31,0.48,,,-99.99,,2013-03-16 19:32:00,
2013-03-16 15:42:00,77.0,44.0,30.08,WSW,239,7.0,11.0,31,0.48,,,-99.99,,2013-03-16 19:42:00,
2013-03-16 15:53:00,78.0,43.0,30.07,SSW,204,2.0,6.0,29,0.48,,,-99.99,,2013-03-16 19:53:00,
2013-03-16 16:02:00,78.0,43.0,30.07,WSW,246,7.0,13.0,29,0.48,,,-99.99,,2013-03-16 20:02:00,
2013-03-16 16:12:00,78.0,43.0,30.07,WSW,246,7.0,13.0,29,0.48,,,-99.99,,2013-03-16 20:12:00,
2013-03-16 16:22:00,78.0,43.0,30.07,WSW,250,8.0,12.0,29,0.48,,,-99.99,,2013-03-16 20:22:00,
2013-03-16 16:32:00,78.0,41.0,30.06,WSW,256,5.0,11.0,27,0.48,,,-99.99,,2013-03-16 20:32:00,
2013-03-16 16:42:00,78.0,41.0,30.06,WSW,256,5.0,11.0,27,0.48,,,-99.99,,2013-03-16 20:42:00,
2013-03-16 16:52:00,78.0,41.0,30.06,SSW,194,5.0,10.0,27,0.48,,,-99.99,,2013-03-16 20:52:00,
2013-03-16 17:02:00,79.0,42.0,30.06,SW,219,6.0,9.0,27,0.48,,,-99.99,,2013-03-16 21:02:00,
2013-03-16 17:12:00,79.0,42.0,30.06,SW,219,6.0,9.0,27,0.48,,,-99.99,,2013-03-16 21:12:00,
2013-03-16 17:22:00,78.0,40.0,30.06,WSW,250,6.0,9.0,26,0.48,,,-99.99,,2013-03-16 21:22:00,
2013-03-16 17:33:00,78.0,39.0,30.05,WSW,249,10.0,15.0,25,0.48,,,-99.99,,2013-03-16 21:33:00,
2013-03-16 17:43:00,78.0,39.0,30.05,WSW,249,10.0,15.0,25,0.48,,,-99.99,,2013-03-16 21:43:00,
2013-03-16 17:53:00,78.0,40.0,30.05,West,262,4.0,11.0,26,0.48,,,-99.99,,2013-03-16 21:53:00,
2013-03-16 18:03:00,78.0,40.0,30.05,SW,225,8.0,11.0,26,0.48,,,-99.99,,2013-03-16 22:03:00,
2013-03-16 18:12:00,78.0,40.0,30.05,SW,225,8.0,11.0,26,0.48,,,-99.99,,2013-03-16 22:12:00,
2013-03-16 18:23:00,78.0,41.0,30.05,WNW,295,7.0,10.0,27,0.48,,,-99.99,,2013-03-16 22:23:00,
2013-03-16 18:33:00,77.0,39.0,30.05,SW,232,6.0,10.0,26,0.48,,,-99.99,,2013-03-16 22:33:00,
2013-03-16 18:42:00,77.0,39.0,30.05,SW,232,6.0,10.0,26,0.48,,,-99.99,,2013-03-16 22:42:00,
2013-03-16 18:53:00,77.0,39.0,30.06,West,270,7.0,11.0,26,0.48,,,-99.99,,2013-03-16 22:53:00,
2013-03-16 19:02:00,77.0,39.0,30.06,SW,218,5.0,7.0,26,0.48,,,-99.99,,2013-03-16 23:02:00,
2013-03-16 19:13:00,77.0,39.0,30.06,SW,218,5.0,7.0,26,0.48,,,-99.99,,2013-03-16 23:13:00,
2013-03-16 19:22:00,77.0,39.0,30.06,West,260,5.0,7.0,26,0.48,,,-99.99,,2013-03-16 23:22:00,
2013-03-16 19:33:00,75.0,41.0,30.06,WSW,246,5.0,6.0,30,0.48,,,-99.99,,2013-03-16 23:33:00,
2013-03-16 19:42:00,75.0,41.0,30.06,WSW,246,5.0,6.0,30,0.48,,,-99.99,,2013-03-16 23:42:00,
2013-03-16 19:53:00,73.0,42.0,30.06,WSW,240,4.0,5.0,33,0.48,,,-99.99,,2013-03-16 23:53:00,
2013-03-16 20:02:00,71.0,46.0,30.06,WSW,253,10.0,13.0,41,0.48,,,-99.99,,2013-03-17 00:02:00,
2013-03-16 20:12:00,71.0,46.0,30.06,WSW,253,10.0,13.0,41,0.48,,,-99.99,,2013-03-17 00:12:00,
2013-03-16 20:22:00,70.0,48.0,30.06,West,277,8.0,11.0,45,0.48,,,-99.99,,2013-03-17 00:22:00,
2013-03-16 20:32:00,68.0,47.0,30.07,SW,229,7.0,9.0,47,0.48,,,-99.99,,2013-03-17 00:32:00,
2013-03-16 20:42:00,68.0,47.0,30.07,SW,229,7.0,9.0,47,0.48,,,-99.99,,2013-03-17 00:42:00,
2013-03-16 20:52:00,66.0,47.0,30.08,WSW,255,7.0,9.0,51,0.48,,,-99.99,,2013-03-17 00:52:00,
2013-03-16 21:02:00,66.0,48.0,30.08,WSW,242,7.0,9.0,52,0.48,,,-99.99,,2013-03-17 01:02:00,
2013-03-16 21:12:00,66.0,48.0,30.08,WSW,242,7.0,9.0,52,0.48,,,-99.99,,2013-03-17 01:12:00,
2013-03-16 21:22:00,65.0,48.0,30.09,WSW,249,6.0,8.0,54,0.48,,,-99.99,,2013-03-17 01:22:00,
2013-03-16 21:32:00,64.0,48.0,30.09,West,269,7.0,9.0,57,0.48,,,-99.99,,2013-03-17 01:32:00,
2013-03-16 21:42:00,64.0,48.0,30.09,West,269,7.0,9.0,57,0.48,,,-99.99,,2013-03-17 01:42:00,
2013-03-16 21:52:00,64.0,49.0,30.09,WSW,253,7.0,8.0,59,0.48,,,-99.99,,2013-03-17 01:52:00,
2013-03-16 22:03:00,63.0,50.0,30.10,West,271,8.0,10.0,63,0.48,,,-99.99,,2013-03-17 02:03:00,
2013-03-16 22:13:00,63.0,50.0,30.10,West,271,8.0,10.0,63,0.48,,,-99.99,,2013-03-17 02:13:00,
2013-03-16 22:22:00,62.0,51.0,30.10,West,259,7.0,8.0,66,0.48,,,-99.99,,2013-03-17 02:22:00,
2013-03-16 22:33:00,61.0,51.0,30.11,WSW,255,4.0,6.0,69,0.48,,,-99.99,,2013-03-17 02:33:00,
2013-03-16 22:43:00,61.0,51.0,30.11,WSW,255,4.0,6.0,69,0.48,,,-99.99,,2013-03-17 02:43:00,
2013-03-16 22:53:00,61.0,51.0,30.11,West,274,3.0,5.0,70,0.48,,,-99.99,,2013-03-17 02:53:00,
2013-03-16 23:02:00,61.0,52.0,30.11,West,264,3.0,4.0,71,0.48,,,-99.99,,2013-03-17 03:02:00,
2013-03-16 23:12:00,61.0,52.0,30.11,West,264,3.0,4.0,71,0.48,,,-99.99,,2013-03-17 03:12:00,
2013-03-16 23:22:00,61.0,52.0,30.11,West,276,4.0,6.0,72,0.48,,,-99.99,,2013-03-17 03:22:00,
2013-03-16 23:33:00,61.0,52.0,30.11,WNW,283,3.0,4.0,73,0.48,,,-99.99,,2013-03-17 03:33:00,
2013-03-16 23:43:00,61.0,52.0,30.11,WNW,283,3.0,4.0,73,0.48,,,-99.99,,2013-03-17 03:43:00,
2013-03-16 23:53:00,60.0,52.0,30.11,WNW,298,5.0,6.0,74,0.48,,,-99.99,,2013-03-17 03:53:00,